Westport, New York
Current Conditions -  °F | °C
As of 6:15 AM on Thursday 23 Oct 2014 (Local Time) from K6B0 Reporting Station
Drizzle Drizzle  
Wind Chill: 39°   Ceiling: 1600
Heat Index: 43°   Visibility: 10mi
Dew Point: 40°   Wind: 7mph
Humidity: 88%   Direction: 350°N
Pressure: 29.94"   Gusts: NA
Location:  44.18°N, 73.44°W
Report Text: K6B0 231015Z AUTO 35006KT 10SM -DZ OVC016 06/04 A2994 RMK AO2 T00610043
Loading
Personal Weather Stations






























Interactive Weather Map
Tropical Storm Tracking
New forecast layout! Learn more

10-Day Weather Forecast

Advertisements
Track Severe Weather on mobile